Jerusalem, Israel

1:12 PM IDT on September 05, 2015 (GMT +0300)
Givat Zeev | | Change Station
CLOSE
Current Station
Personal Weather Station
Location: Givat Zeev, ISRAEL
Elevation: 2543 ft
Nearby Weather Stations

Elev 2543 ft 31.86 °N, 35.16 °E | Updated 14 minutes ago

Haze
Haze
81.0 °F
Feels Like 83 °F
N
4.0
Wind Variable Wind from WSW
Gusts 10.0 mph

Today
High -- | Low -- °F
--% Chance of Precip.
Yesterday
High -- | Low -- °F
Precip. -- in
6:16 AM 6:58 PM
Waning Gibbous, 50% visible
Pressure 29.95 in
Visibility 3.1 miles
Clouds
Heat Index 83 °F
Dew Point 65 °F
Humidity 58%
Rainfall 0.00 in
Snow Depth Not available.
UV Not available.
Pollen Not available.
Air Quality Not available.
Flu Activity Not available.
METAR OJAM 051000Z 27005KT 5000 HZ NSC 29/15 Q1014 NOSIG
Pressure 29.95 in
Visibility 3.1 miles
Clouds
Heat Index 83 °F
Dew Point 65 °F
Humidity 58%
Rainfall 0.00 in
Snow Depth Not available.
UV Not available.
Pollen Not available.
Air Quality Not available.
Flu Activity Not available.
METAR OJAM 051000Z 27005KT 5000 HZ NSC 29/15 Q1014 NOSIG

10-Day Weather Forecast

×

Almanac

Astronomy

Sep. 05, 2015 Rise Set
Actual Time
Civil Twilight
Nautical Twilight
Astronomical Twilight
Moon
Length of Visible Light
Length of Day
Tomorrow will be .
, % of the Moon is Illuminated

Today's Extremes

Country Highs Country Lows

Community

WunderPhotos

Upload Photos

1,852,440 photos uploaded!

WunderBlogs® & News

Nearby

Air Quality

  Air Quality AQ Index Pollutant
Not available.

Snow Depth

Station Depth Elevation

Earthquake Activity

City Distance Mag. Time & Date
Minimum magnitude displayed is 2.5.

Coastal Water Temperatures

Place Temperature

Stations

Nearby Weather Stations

Station Location Temp. Windchill Dew Point Humidity Wind Precip. Elev Updated Type